createdAt,value
2022-12-18T00:00:30.325Z,82.60
2022-12-18T00:03:02.047Z,77.45
2022-12-18T00:05:33.715Z,77.20
2022-12-18T00:08:09.559Z,85.63
2022-12-18T00:10:41.360Z,86.50
2022-12-18T00:13:13.483Z,78.10
2022-12-18T00:15:45.108Z,84.85
2022-12-18T00:18:20.408Z,80.88
2022-12-18T00:20:52.343Z,82.95
2022-12-18T00:23:23.904Z,77.80
2022-12-18T00:25:55.885Z,92.95
2022-12-18T00:28:27.499Z,89.83
2022-12-18T00:31:10.914Z,89.60
2022-12-18T00:33:44.080Z,87.63
2022-12-18T00:36:21.448Z,86.20
2022-12-18T00:38:55.363Z,89.35
2022-12-18T00:41:46.765Z,69.93
2022-12-18T00:44:19.350Z,91.47
2022-12-18T00:46:51.059Z,83.22
2022-12-18T00:49:22.701Z,89.63
2022-12-18T00:51:54.756Z,89.15
2022-12-18T00:54:26.484Z,82.73
2022-12-18T00:56:58.050Z,82.13
2022-12-18T00:59:31.223Z,89.50
2022-12-18T01:02:03.088Z,86.43
2022-12-18T01:04:35.565Z,84.75
2022-12-18T01:07:10.084Z,82.15
2022-12-18T01:09:41.750Z,86.28
2022-12-18T01:12:13.304Z,80.07
2022-12-18T01:14:44.857Z,87.47
2022-12-18T01:17:16.447Z,88.50
2022-12-18T01:19:48.025Z,85.10
2022-12-18T01:22:19.663Z,81.63
2022-12-18T01:24:51.243Z,88.80
2022-12-18T01:27:22.849Z,89.63
2022-12-18T01:29:56.992Z,87.18
2022-12-18T01:32:31.662Z,81.25
2022-12-18T01:37:35.120Z,92.75
2022-12-18T01:40:07.547Z,85.72
2022-12-18T01:42:39.147Z,88.38
2022-12-18T01:45:16.984Z,85.68
2022-12-18T01:47:52.867Z,85.43
2022-12-18T01:50:40.918Z,96.50
2022-12-18T01:53:22.542Z,93.30
2022-12-18T01:55:57.067Z,95.55
2022-12-18T01:58:41.742Z,91.82
2022-12-18T02:01:13.607Z,94.28
2022-12-18T02:03:45.994Z,88.40
2022-12-18T02:06:24.397Z,91.32
2022-12-18T02:09:17.711Z,82.88
2022-12-18T02:12:18.238Z,90.35
2022-12-18T02:15:01.631Z,84.78
2022-12-18T02:17:42.421Z,96.25
2022-12-18T02:20:33.864Z,91.65
2022-12-18T02:23:39.797Z,96.35
2022-12-18T02:26:19.639Z,95.90
2022-12-18T02:29:07.032Z,102.07
2022-12-18T02:31:51.237Z,102.43
2022-12-18T02:34:29.133Z,98.82
2022-12-18T02:37:05.544Z,108.25
2022-12-18T02:39:41.329Z,106.90
2022-12-18T02:42:18.546Z,107.57
2022-12-18T02:44:52.272Z,103.35
2022-12-18T02:47:33.011Z,92.95
2022-12-18T02:50:08.856Z,98.85
2022-12-18T02:53:17.994Z,99.15
2022-12-18T02:56:05.855Z,96.93
2022-12-18T02:59:00.203Z,100.47
2022-12-18T03:01:56.960Z,109.28
2022-12-18T03:04:37.095Z,99.07
2022-12-18T03:07:16.670Z,108.15
2022-12-18T03:09:52.391Z,104.90
2022-12-18T03:12:40.194Z,104.70
2022-12-18T03:15:29.548Z,111.82
2022-12-18T03:18:17.163Z,101.50
2022-12-18T03:20:52.543Z,103.63
2022-12-18T03:23:31.410Z,105.78
2022-12-18T03:26:10.313Z,114.05
2022-12-18T03:28:50.540Z,109.32
2022-12-18T03:31:27.410Z,112.68
2022-12-18T03:34:03.080Z,105.20
2022-12-18T03:36:45.263Z,77.03
2022-12-18T03:39:20.519Z,95.45
2022-12-18T03:42:29.980Z,89.80
2022-12-18T03:45:28.475Z,103.60
2022-12-18T03:48:15.504Z,89.75
2022-12-18T03:51:08.796Z,87.63
2022-12-18T03:53:56.652Z,91.60
2022-12-18T03:56:37.717Z,93.20
2022-12-18T03:59:13.629Z,94.25
2022-12-18T04:01:52.438Z,94.13
2022-12-18T04:04:28.418Z,85.57
2022-12-18T04:07:02.493Z,83.88
2022-12-18T04:09:39.609Z,81.65
2022-12-18T04:12:11.599Z,91.22
2022-12-18T04:14:43.291Z,82.82
2022-12-18T04:17:15.213Z,91.65
2022-12-18T04:19:46.886Z,77.10
2022-12-18T04:22:19.008Z,78.30
2022-12-18T04:24:55.946Z,80.05
2022-12-18T04:27:35.580Z,67.95
2022-12-18T04:30:10.203Z,71.30
2022-12-18T04:32:45.520Z,73.88
2022-12-18T04:35:19.907Z,72.05
2022-12-18T04:37:52.207Z,70.57
2022-12-18T04:40:23.921Z,68.68
2022-12-18T04:42:56.304Z,63.83
2022-12-18T04:45:27.983Z,70.88
2022-12-18T04:48:00.940Z,65.75
2022-12-18T04:50:32.519Z,69.90
2022-12-18T04:53:04.170Z,63.25
2022-12-18T04:55:35.790Z,62.95
2022-12-18T04:58:07.420Z,69.25
2022-12-18T05:00:39.083Z,74.07
2022-12-18T05:03:10.791Z,71.50
2022-12-18T05:05:42.348Z,58.35
2022-12-18T05:08:13.932Z,59.70
2022-12-18T05:10:45.514Z,62.15
2022-12-18T05:13:17.588Z,63.45
2022-12-18T05:15:53.449Z,64.38
2022-12-18T05:18:26.067Z,64.72
2022-12-18T05:20:57.656Z,59.85
2022-12-18T05:23:29.403Z,56.60
2022-12-18T05:26:02.900Z,57.42
2022-12-18T05:28:36.239Z,60.25
2022-12-18T05:31:08.893Z,55.60
2022-12-18T05:33:40.926Z,54.20
2022-12-18T05:36:12.770Z,67.78
2022-12-18T05:38:44.348Z,55.78
2022-12-18T05:41:15.911Z,60.35
2022-12-18T05:43:47.644Z,56.70
2022-12-18T05:46:19.646Z,61.83
2022-12-18T05:48:51.928Z,56.20
2022-12-18T05:51:23.719Z,55.85
2022-12-18T05:53:55.743Z,54.70
2022-12-18T05:56:27.344Z,48.67
2022-12-18T05:58:58.901Z,45.75
2022-12-18T06:01:30.545Z,64.30
2022-12-18T06:04:02.831Z,59.85
2022-12-18T06:06:34.979Z,61.65
2022-12-18T06:09:10.592Z,57.10
2022-12-18T06:11:42.159Z,53.05
2022-12-18T06:14:14.005Z,59.33
2022-12-18T06:16:45.545Z,56.50
2022-12-18T06:19:17.887Z,56.47
2022-12-18T06:21:50.265Z,45.47
2022-12-18T06:24:21.896Z,50.45
2022-12-18T06:26:53.483Z,50.70
2022-12-18T06:29:25.112Z,53.88
2022-12-18T06:31:56.671Z,44.38
2022-12-18T06:34:28.259Z,50.15
2022-12-18T06:36:59.986Z,60.28
2022-12-18T06:39:31.608Z,54.53
2022-12-18T06:42:04.256Z,59.20
2022-12-18T06:44:39.867Z,56.70
2022-12-18T06:47:11.476Z,60.45
2022-12-18T06:49:44.982Z,52.55
2022-12-18T06:52:16.620Z,61.05
2022-12-18T06:54:48.253Z,54.05
2022-12-18T06:57:19.852Z,65.95
2022-12-18T06:59:51.420Z,56.85
2022-12-18T07:02:23.064Z,72.53
2022-12-18T07:04:54.735Z,60.53
2022-12-18T07:07:26.258Z,55.80
2022-12-18T07:09:57.842Z,57.63
2022-12-18T07:12:29.380Z,54.97
2022-12-18T07:15:00.977Z,50.08
2022-12-18T07:17:32.510Z,43.60
2022-12-18T07:20:04.736Z,42.13
2022-12-18T07:22:36.379Z,39.63
2022-12-18T07:25:08.469Z,47.17
2022-12-18T07:27:40.127Z,44.35
2022-12-18T07:30:12.483Z,43.78
2022-12-18T07:32:46.955Z,50.15
2022-12-18T07:35:23.348Z,46.90
2022-12-18T07:37:56.405Z,36.38
2022-12-18T07:40:27.959Z,45.45
2022-12-18T07:42:59.578Z,44.67
2022-12-18T07:45:34.242Z,41.13
2022-12-18T07:50:38.479Z,39.00
2022-12-18T07:53:13.065Z,38.63
2022-12-18T07:56:17.895Z,42.10
2022-12-18T07:58:38.364Z,40.55
2022-12-18T08:01:12.988Z,41.97
2022-12-18T08:03:44.665Z,46.60
2022-12-18T08:06:16.250Z,53.17
2022-12-18T08:08:54.456Z,53.03
2022-12-18T08:11:28.264Z,54.78
2022-12-18T08:13:59.974Z,54.88
2022-12-18T08:16:31.704Z,51.78
2022-12-18T08:19:03.877Z,46.15
2022-12-18T08:21:35.458Z,43.75
2022-12-18T08:24:07.690Z,47.58
2022-12-18T08:26:39.639Z,37.00
2022-12-18T08:29:11.672Z,39.65
2022-12-18T08:31:43.436Z,37.47
2022-12-18T08:34:18.813Z,36.83
2022-12-18T08:36:53.331Z,35.50
2022-12-18T08:39:24.971Z,35.97
2022-12-18T08:42:15.087Z,41.92
2022-12-18T08:44:46.652Z,41.28
2022-12-18T08:47:23.287Z,41.35
2022-12-18T08:49:54.845Z,39.92
2022-12-18T08:52:26.553Z,39.05
2022-12-18T08:54:58.178Z,43.80
2022-12-18T08:57:29.771Z,44.30
2022-12-18T09:00:01.397Z,45.45
2022-12-18T09:02:36.059Z,37.53
2022-12-18T09:07:39.651Z,39.25
2022-12-18T09:10:11.228Z,32.63
2022-12-18T09:12:42.920Z,39.45
2022-12-18T09:15:14.634Z,38.13
2022-12-18T09:17:46.248Z,36.65
2022-12-18T09:20:17.825Z,36.63
2022-12-18T09:22:49.886Z,35.00
2022-12-18T09:25:21.698Z,35.50
2022-12-18T09:27:53.913Z,33.25
2022-12-18T09:30:25.489Z,37.22
2022-12-18T09:32:57.443Z,27.17
2022-12-18T09:35:29.039Z,29.83
2022-12-18T09:38:00.627Z,35.25
2022-12-18T09:40:38.514Z,31.27
2022-12-18T09:43:19.813Z,32.15
2022-12-18T09:46:02.892Z,33.70
2022-12-18T09:48:42.708Z,34.45
2022-12-18T09:51:20.688Z,32.67
2022-12-18T09:53:58.667Z,29.73
2022-12-18T09:56:36.304Z,37.10
2022-12-18T09:59:22.358Z,33.72
2022-12-18T10:01:54.027Z,37.47
2022-12-18T10:04:31.447Z,33.22
2022-12-18T10:07:25.844Z,41.08
2022-12-18T10:10:32.859Z,36.28
2022-12-18T10:13:32.081Z,36.53
2022-12-18T10:16:28.455Z,34.80
2022-12-18T10:19:26.183Z,31.90
2022-12-18T10:22:03.737Z,38.35
2022-12-18T10:24:50.955Z,40.72
2022-12-18T10:27:27.765Z,32.05
2022-12-18T10:32:31.964Z,34.78
2022-12-18T10:35:03.857Z,32.95
2022-12-18T10:37:35.481Z,36.92
2022-12-18T10:40:09.887Z,32.95
2022-12-18T10:42:43.318Z,41.05
2022-12-18T10:45:18.691Z,36.05
2022-12-18T10:47:50.887Z,38.03
2022-12-18T10:51:09.046Z,33.35
2022-12-18T10:53:32.017Z,33.65
2022-12-18T10:56:07.204Z,29.80
2022-12-18T10:58:42.047Z,32.38
2022-12-18T11:01:17.080Z,37.00
2022-12-18T11:06:25.680Z,37.08
2022-12-18T11:09:09.374Z,29.35
2022-12-18T11:11:50.655Z,30.13
2022-12-18T11:14:26.821Z,36.13
2022-12-18T11:20:01.264Z,33.97
2022-12-18T11:22:35.820Z,30.55
2022-12-18T11:28:40.128Z,37.20
2022-12-18T11:31:23.078Z,36.78
2022-12-18T11:34:27.976Z,43.22
2022-12-18T11:36:56.094Z,37.53
2022-12-18T11:39:56.103Z,34.13
2022-12-18T11:42:44.686Z,38.17
2022-12-18T11:45:29.402Z,38.85
2022-12-18T11:48:18.080Z,38.90
2022-12-18T11:50:55.218Z,36.85
2022-12-18T11:53:28.075Z,46.20
2022-12-18T11:56:33.629Z,37.63
2022-12-18T11:59:21.775Z,39.95
2022-12-18T12:02:00.961Z,38.90
2022-12-18T12:04:49.401Z,40.47
2022-12-18T12:07:48.115Z,39.30
2022-12-18T12:10:31.811Z,41.22
2022-12-18T12:13:21.775Z,38.33
2022-12-18T12:16:18.419Z,42.78
2022-12-18T12:19:26.737Z,39.33
2022-12-18T12:22:14.914Z,42.85
2022-12-18T12:24:49.383Z,43.97
2022-12-18T12:27:38.680Z,42.85
2022-12-18T12:30:29.204Z,41.65
2022-12-18T12:33:34.727Z,43.33
2022-12-18T12:36:27.725Z,39.92
2022-12-18T12:39:06.202Z,44.92
2022-12-18T12:41:58.607Z,48.35
2022-12-18T12:44:36.601Z,41.92
2022-12-18T12:47:17.244Z,45.38
2022-12-18T12:49:51.634Z,44.72
2022-12-18T12:52:36.904Z,44.05
2022-12-18T12:55:18.524Z,51.03
2022-12-18T12:58:20.163Z,40.65
2022-12-18T13:01:23.148Z,46.53
2022-12-18T13:04:07.111Z,45.63
2022-12-18T13:07:05.530Z,41.33
2022-12-18T13:10:18.978Z,54.40
2022-12-18T13:13:11.042Z,46.88
2022-12-18T13:15:48.301Z,45.15
2022-12-18T13:18:26.317Z,46.13
2022-12-18T13:21:01.563Z,47.03
2022-12-18T13:23:39.128Z,44.05
2022-12-18T13:26:11.059Z,50.55
2022-12-18T13:28:49.002Z,51.97
2022-12-18T13:31:42.043Z,51.00
2022-12-18T13:34:26.173Z,49.58
2022-12-18T13:37:33.848Z,44.58
2022-12-18T13:40:45.785Z,43.75
2022-12-18T13:43:23.784Z,43.75
2022-12-18T13:46:20.099Z,41.05
2022-12-18T13:48:59.936Z,43.85
2022-12-18T13:51:34.599Z,42.47
2022-12-18T13:54:27.040Z,37.90
2022-12-18T13:56:58.598Z,32.83
2022-12-18T13:59:40.756Z,40.15
2022-12-18T14:02:24.089Z,38.03
2022-12-18T14:04:56.448Z,37.10
2022-12-18T14:07:36.285Z,38.92
2022-12-18T14:13:10.617Z,37.13
2022-12-18T14:15:45.355Z,37.05
2022-12-18T14:18:26.518Z,41.30
2022-12-18T14:21:00.804Z,39.17
2022-12-18T14:23:34.309Z,37.42
2022-12-18T14:26:30.354Z,40.90
2022-12-18T14:29:20.809Z,38.55
2022-12-18T14:32:18.715Z,29.80
2022-12-18T14:34:55.137Z,45.25
2022-12-18T14:37:28.461Z,40.00
2022-12-18T14:40:12.253Z,46.85
2022-12-18T14:42:43.944Z,42.33
2022-12-18T14:45:41.785Z,37.33
2022-12-18T14:48:21.699Z,41.22
2022-12-18T14:50:57.902Z,40.60
2022-12-18T14:53:59.051Z,41.70
2022-12-18T14:56:37.937Z,36.95
2022-12-18T14:59:24.244Z,45.67
2022-12-18T15:02:29.845Z,40.92
2022-12-18T15:05:15.517Z,42.78
2022-12-18T15:07:53.488Z,32.17
2022-12-18T15:10:27.769Z,40.28
2022-12-18T15:13:03.502Z,47.03
2022-12-18T15:15:35.296Z,38.25
2022-12-18T15:18:11.280Z,41.50
2022-12-18T15:20:56.947Z,43.88
2022-12-18T15:23:36.845Z,40.78
2022-12-18T15:26:13.738Z,46.55
2022-12-18T15:28:53.963Z,39.22
2022-12-18T15:31:31.047Z,45.65
2022-12-18T15:34:15.369Z,43.95
2022-12-18T15:36:47.703Z,43.00
2022-12-18T15:39:19.306Z,44.80
2022-12-18T15:42:09.905Z,50.78
2022-12-18T15:44:41.649Z,40.85
2022-12-18T15:47:14.022Z,46.88
2022-12-18T15:49:45.744Z,42.75
2022-12-18T15:52:26.882Z,44.88
2022-12-18T15:55:17.097Z,51.05
2022-12-18T15:57:48.765Z,50.30
2022-12-18T16:00:20.453Z,47.92
2022-12-18T16:02:52.204Z,43.30
2022-12-18T16:05:25.095Z,52.92
2022-12-18T16:07:56.793Z,41.63
2022-12-18T16:10:28.504Z,39.67
2022-12-18T16:13:00.123Z,38.50
2022-12-18T16:15:34.515Z,41.30
2022-12-18T16:18:06.169Z,43.47
2022-12-18T16:20:41.344Z,38.03
2022-12-18T16:23:13.105Z,47.75
2022-12-18T16:25:44.822Z,48.22
2022-12-18T16:28:16.406Z,43.13
2022-12-18T16:30:48.192Z,42.97
2022-12-18T16:33:26.246Z,46.80
2022-12-18T16:35:57.894Z,43.95
2022-12-18T16:38:29.540Z,47.07
2022-12-18T16:41:19.610Z,43.67
2022-12-18T16:43:54.849Z,42.80
2022-12-18T16:46:30.383Z,43.40
2022-12-18T16:49:02.074Z,52.90
2022-12-18T16:51:34.135Z,45.95
2022-12-18T16:54:10.205Z,43.75
2022-12-18T16:56:43.573Z,44.25
2022-12-18T16:59:15.885Z,49.22
2022-12-18T17:01:47.903Z,48.80
2022-12-18T17:04:21.121Z,52.25
2022-12-18T17:06:54.000Z,44.70
2022-12-18T17:09:25.800Z,51.67
2022-12-18T17:11:57.515Z,49.78
2022-12-18T17:14:29.206Z,56.65
2022-12-18T17:17:21.004Z,51.63
2022-12-18T17:19:52.938Z,50.85
2022-12-18T17:22:28.056Z,50.83
2022-12-18T17:24:59.659Z,51.80
2022-12-18T17:27:31.568Z,54.80
2022-12-18T17:30:03.783Z,48.20
2022-12-18T17:32:35.392Z,48.00
2022-12-18T17:35:07.657Z,60.03
2022-12-18T17:37:40.214Z,47.60
2022-12-18T17:40:11.865Z,47.22
2022-12-18T17:42:43.941Z,49.17
2022-12-18T17:45:15.746Z,44.53
2022-12-18T17:47:47.682Z,45.83
2022-12-18T17:50:22.317Z,48.78
2022-12-18T17:52:57.828Z,51.22
2022-12-18T17:55:32.681Z,54.78
2022-12-18T17:58:04.364Z,45.92
2022-12-18T18:00:35.962Z,50.28
2022-12-18T18:03:07.717Z,49.22
2022-12-18T18:05:40.871Z,51.35
2022-12-18T18:08:13.551Z,45.88
2022-12-18T18:10:45.253Z,47.17
2022-12-18T18:13:46.900Z,46.30
2022-12-18T18:16:19.009Z,43.95
2022-12-18T18:18:50.671Z,49.63
2022-12-18T18:21:22.287Z,47.60
2022-12-18T18:23:54.328Z,53.70
2022-12-18T18:26:29.230Z,51.75
2022-12-18T18:29:05.148Z,48.60
2022-12-18T18:31:40.991Z,50.70
2022-12-18T18:34:18.848Z,49.00
2022-12-18T18:36:51.227Z,49.85
2022-12-18T18:39:23.595Z,53.08
2022-12-18T18:41:59.773Z,48.78
2022-12-18T18:44:31.552Z,49.28
2022-12-18T18:47:04.412Z,49.05
2022-12-18T18:49:41.365Z,40.63
2022-12-18T18:52:12.987Z,48.50
2022-12-18T18:55:10.752Z,50.58
2022-12-18T18:57:36.144Z,48.45
2022-12-18T19:00:10.427Z,47.33
2022-12-18T19:02:42.454Z,45.28
2022-12-18T19:05:14.144Z,47.08
2022-12-18T19:07:45.696Z,54.13
2022-12-18T19:10:17.721Z,44.58
2022-12-18T19:13:10.960Z,52.85
2022-12-18T19:15:42.600Z,47.78
2022-12-18T19:18:15.395Z,52.67
2022-12-18T19:21:01.412Z,58.58
2022-12-18T19:23:34.074Z,58.67
2022-12-18T19:29:04.067Z,52.97
2022-12-18T19:31:37.233Z,55.17
2022-12-18T19:34:09.551Z,59.87
2022-12-18T19:36:41.476Z,59.93
2022-12-18T19:39:17.300Z,56.20
2022-12-18T19:41:48.978Z,61.77
2022-12-18T19:44:20.607Z,54.95
2022-12-18T19:46:52.251Z,62.05
2022-12-18T19:49:24.821Z,56.13
2022-12-18T19:51:56.648Z,58.75
2022-12-18T19:54:28.332Z,60.38
2022-12-18T19:56:59.876Z,57.85
2022-12-18T19:59:31.405Z,61.22
2022-12-18T20:02:03.360Z,68.00
2022-12-18T20:04:35.114Z,60.35
2022-12-18T20:07:06.765Z,57.58
2022-12-18T20:09:38.605Z,65.20
2022-12-18T20:12:10.282Z,60.17
2022-12-18T20:14:41.930Z,57.13
2022-12-18T20:17:13.533Z,64.67
2022-12-18T20:19:45.404Z,70.43
2022-12-18T20:22:18.769Z,63.60
2022-12-18T20:24:50.371Z,64.20
2022-12-18T20:27:22.301Z,61.60
2022-12-18T20:29:55.913Z,65.05
2022-12-18T20:32:35.356Z,70.38
2022-12-18T20:35:08.705Z,62.05
2022-12-18T20:37:42.829Z,60.13
2022-12-18T20:40:17.894Z,66.30
2022-12-18T20:42:52.323Z,67.63
2022-12-18T20:45:24.626Z,61.85
2022-12-18T20:47:56.313Z,66.17
2022-12-18T20:50:28.081Z,60.72
2022-12-18T20:52:59.673Z,60.53
2022-12-18T20:55:31.237Z,58.38
2022-12-18T20:58:02.811Z,66.28
2022-12-18T21:00:34.782Z,60.30
2022-12-18T21:03:06.456Z,67.10
2022-12-18T21:05:38.072Z,64.80
2022-12-18T21:08:11.987Z,65.85
2022-12-18T21:10:45.446Z,66.17
2022-12-18T21:13:17.408Z,63.57
2022-12-18T21:15:53.489Z,63.13
2022-12-18T21:18:25.617Z,64.27
2022-12-18T21:20:57.272Z,64.53
2022-12-18T21:23:29.297Z,62.70
2022-12-18T21:26:34.938Z,64.30
2022-12-18T21:29:25.061Z,67.28
2022-12-18T21:31:56.978Z,63.63
2022-12-18T21:34:30.336Z,71.10
2022-12-18T21:37:02.266Z,71.90
2022-12-18T21:39:35.127Z,62.45
2022-12-18T21:42:25.370Z,73.40
2022-12-18T21:44:57.492Z,71.60
2022-12-18T21:47:30.088Z,63.85
2022-12-18T21:52:35.434Z,62.57
2022-12-18T21:55:09.893Z,62.50
2022-12-18T21:57:41.939Z,63.70
2022-12-18T22:00:18.329Z,69.30
2022-12-18T22:03:17.790Z,63.55
2022-12-18T22:05:44.737Z,61.33
2022-12-18T22:08:16.304Z,61.30
2022-12-18T22:10:50.242Z,59.33
2022-12-18T22:13:22.051Z,58.03
2022-12-18T22:15:53.689Z,61.70
2022-12-18T22:18:25.277Z,62.20
2022-12-18T22:21:04.423Z,64.40
2022-12-18T22:23:36.002Z,59.57
2022-12-18T22:26:10.766Z,64.97
2022-12-18T22:31:37.416Z,51.00
2022-12-18T22:34:09.321Z,58.63
2022-12-18T22:36:43.547Z,65.18
2022-12-18T22:39:21.143Z,57.13
2022-12-18T22:41:53.542Z,52.63
2022-12-18T22:44:27.808Z,56.30
2022-12-18T22:47:06.640Z,55.97
2022-12-18T22:49:39.209Z,54.67
2022-12-18T22:52:10.861Z,55.90
2022-12-18T22:54:42.454Z,50.70
2022-12-18T22:57:14.178Z,59.17
2022-12-18T22:59:46.525Z,56.83
2022-12-18T23:02:21.387Z,48.87
2022-12-18T23:04:53.131Z,53.63
2022-12-18T23:07:24.960Z,47.97
2022-12-18T23:09:59.601Z,52.17
2022-12-18T23:12:37.468Z,45.78
2022-12-18T23:15:11.082Z,53.42
2022-12-18T23:17:42.875Z,43.80
2022-12-18T23:20:14.501Z,54.33
2022-12-18T23:22:48.888Z,51.97
2022-12-18T23:27:52.312Z,57.93
2022-12-18T23:30:24.119Z,51.83
2022-12-18T23:32:57.776Z,57.67
2022-12-18T23:35:30.437Z,47.08
2022-12-18T23:38:05.215Z,45.58
2022-12-18T23:40:36.734Z,46.53
2022-12-18T23:43:10.381Z,51.33
2022-12-18T23:45:41.970Z,53.23
2022-12-18T23:48:13.558Z,48.65
2022-12-18T23:50:45.294Z,49.65
2022-12-18T23:53:16.898Z,43.73
2022-12-18T23:55:53.019Z,47.67
2022-12-18T23:58:27.960Z,48.23
